Terminal Aerodrome Forecast
Issued by NWS Goodland, KS

Home | Current Version | Previous Version | Text Only | Print | Product List | Glossary On
Versions: 1 2 3 4 5 6 7 8 9 10 11 12 13 14 15 16
000
FTUS43 KGLD 012058 AAA
TAFGLD
TAF AMD
KGLD 012058Z 0121/0218 03011KT P6SM FEW100
     FM020300 09006KT P6SM BKN250
     FM021400 20009KT P6SM VCTS SCT090CB BKN200=

USA.gov is the U.S. government's official web portal to all federal, state and local government web resources and services.